Time;durP1;ratioP1;P1;durP2;ratioP2;P2;SDS_P1;SDS_P2;PMS_P1;PMS_P2;Temp;Humidity;BMP_temperature;BMP_pressure;BME280_temperature;BME280_humidity;BME280_pressure;Samples;Min_cycle;Max_cycle;Signal;HPM_P1;HPM_P2
2022/10/03 09:20:59;;;;;;;1.30;1.10;;;;;;;21.19;30.06;100209.81;507576;27;20336;-94
2022/10/03 09:23:29;;;;;;;1.58;0.85;;;;;;;21.33;30.00;100198.50;4897355;29;20080;-95
2022/10/03 09:26:04;;;;;;;1.05;0.95;;;;;;;21.35;29.91;100193.59;4908028;29;20497;-95
2022/10/03 09:28:42;;;;;;;1.33;1.20;;;;;;;21.44;29.82;100216.50;4893466;29;20021;-95
2022/10/03 09:31:28;;;;;;;1.15;1.05;;;;;;;21.34;29.93;100214.53;4902794;29;20048;-95
2022/10/03 09:34:18;;;;;;;1.10;1.00;;;;;;;21.19;30.13;100209.81;4884357;29;20048;-95
2022/10/03 09:37:25;;;;;;;1.77;1.00;;;;;;;21.06;30.37;100202.16;4897655;29;20036;-96
2022/10/03 09:40:03;;;;;;;1.10;1.00;;;;;;;20.87;30.46;100204.47;4893298;29;20443;-96
2022/10/03 09:42:50;;;;;;;1.20;1.10;;;;;;;20.84;30.55;100212.34;4872708;29;20031;-94
2022/10/03 09:45:40;;;;;;;1.17;1.00;;;;;;;20.73;30.73;100212.25;4900167;29;20095;-96
2022/10/03 09:48:18;;;;;;;0.98;0.95;;;;;;;20.65;30.81;100198.34;4894604;29;20091;-92
2022/10/03 09:50:51;;;;;;;1.15;1.05;;;;;;;20.57;30.87;100205.00;4877511;29;20025;-92
2022/10/03 09:53:38;;;;;;;1.30;1.20;;;;;;;20.54;31.06;100202.81;4900223;29;20021;-93
2022/10/03 09:56:18;;;;;;;1.10;1.00;;;;;;;20.50;31.07;100207.13;4903570;29;20530;-93
2022/10/03 09:59:21;;;;;;;1.33;1.23;;;;;;;20.40;31.16;100205.13;4891623;29;20089;-92
2022/10/03 10:02:11;;;;;;;1.17;0.80;;;;;;;20.39;31.15;100201.59;4909001;29;20036;-94
2022/10/03 10:05:01;;;;;;;1.13;1.02;;;;;;;20.62;30.85;100183.38;4888181;29;20072;-93
2022/10/03 10:07:43;;;;;;;1.55;1.08;;;;;;;20.98;30.51;100198.03;4913118;29;20031;-94
2022/10/03 10:10:28;;;;;;;0.90;0.90;;;;;;;21.29;30.16;100203.66;4896717;29;20436;-93
2022/10/03 10:13:24;;;;;;;1.08;0.98;;;;;;;21.51;29.85;100189.94;4902488;29;20025;-96
2022/10/03 10:16:08;;;;;;;0.82;0.82;;;;;;;21.55;29.87;100199.19;4905432;29;20040;-95
2022/10/03 10:18:39;;;;;;;;;;;;;;;21.47;29.95;100191.56;4920545;29;20040;-93
2022/10/03 10:21:26;;;;;;;0.90;0.90;;;;;;;21.34;30.14;100192.81;4890067;29;20447;-95
2022/10/03 10:24:18;;;;;;;1.30;1.08;;;;;;;21.20;30.27;100189.75;4916836;29;20078;-95
2022/10/03 10:27:31;;;;;;;1.10;1.00;;;;;;;21.04;30.55;100189.91;4928453;29;20402;-96
2022/10/03 10:30:20;;;;;;;1.25;1.15;;;;;;;20.82;30.59;100177.28;4881228;29;20073;-95
2022/10/03 10:33:04;;;;;;;0.82;0.82;;;;;;;20.85;30.77;100194.94;4929033;29;20024;-95
2022/10/03 10:36:01;;;;;;;1.02;0.90;;;;;;;20.76;30.95;100195.41;4918264;29;20101;-95
2022/10/03 10:38:42;;;;;;;1.23;1.08;;;;;;;20.68;30.84;100179.63;4929011;29;20028;-95
2022/10/03 10:41:29;;;;;;;1.60;1.05;;;;;;;20.58;31.02;100182.22;4921074;29;20054;-95
2022/10/03 10:44:31;;;;;;;1.17;1.08;;;;;;;20.54;31.02;100178.38;4930854;29;20038;-96
2022/10/03 10:47:41;;;;;;;1.10;1.00;;;;;;;20.51;31.25;100189.78;4911623;29;20338;-94
2022/10/03 10:50:24;;;;;;;1.23;1.08;;;;;;;20.45;31.17;100172.59;4912442;29;20043;-94
2022/10/03 10:53:08;;;;;;;1.73;1.00;;;;;;;20.41;31.30;100172.31;4907563;29;20027;-94
2022/10/03 10:56:09;;;;;;;0.98;0.98;;;;;;;20.38;31.41;100172.81;4927978;29;20489;-94
2022/10/03 10:58:48;;;;;;;1.08;0.95;;;;;;;20.35;31.45;100167.94;4886252;29;20040;-94
2022/10/03 11:01:25;;;;;;;1.45;1.20;;;;;;;20.28;31.41;100167.28;4903419;29;20059;-94
2022/10/03 11:04:25;;;;;;;1.00;0.90;;;;;;;20.29;31.46;100171.66;4920216;29;20506;-94
2022/10/03 11:07:21;;;;;;;0.93;0.80;;;;;;;20.54;31.13;100162.09;4916491;29;20076;-94
2022/10/03 11:09:59;;;;;;;0.82;0.82;;;;;;;20.88;30.74;100159.91;4913618;29;20032;-94
2022/10/03 11:12:41;;;;;;;1.05;0.90;;;;;;;21.13;30.58;100155.75;4957531;23;20047;-93
2022/10/03 11:15:34;;;;;;;1.20;1.10;;;;;;;21.34;30.23;100148.50;4948637;28;20028;-93
2022/10/03 11:18:09;;;;;;;1.30;1.00;;;;;;;21.40;30.18;100158.28;4945115;29;20032;-93
2022/10/03 11:20:44;;;;;;;1.10;1.00;;;;;;;21.31;30.35;100152.56;4943972;28;20036;-93
2022/10/03 11:23:41;;;;;;;1.45;1.27;;;;;;;21.15;30.50;100138.09;4939740;28;20035;-92
2022/10/03 11:26:54;;;;;;;1.30;1.20;;;;;;;21.08;30.74;100153.00;4938015;29;20602;-92
2022/10/03 11:29:57;;;;;;;2.38;1.17;;;;;;;20.90;30.96;100146.91;4930866;29;20129;-91
2022/10/03 11:33:08;;;;;;;1.10;1.00;;;;;;;20.81;30.85;100149.28;4946160;29;20182;-91
2022/10/03 11:35:58;;;;;;;1.73;1.27;;;;;;;20.73;31.24;100148.94;4946224;29;20055;-91
2022/10/03 11:38:29;;;;;;;1.52;1.42;;;;;;;20.62;31.06;100135.31;4945917;29;20035;-92
2022/10/03 11:41:13;;;;;;;1.52;1.33;;;;;;;20.59;31.21;100134.97;4945850;29;20102;-92
2022/10/03 11:43:54;;;;;;;1.63;1.48;;;;;;;20.55;31.25;100131.16;4943079;28;20026;-92
2022/10/03 11:46:45;;;;;;;1.30;1.20;;;;;;;20.50;31.54;100137.34;4943094;29;20027;-93
2022/10/03 11:49:33;;;;;;;1.33;1.08;;;;;;;20.44;31.43;100131.09;4950264;28;20030;-92
2022/10/03 11:52:26;;;;;;;1.20;1.10;;;;;;;20.42;31.46;100140.53;4947595;28;20047;-92
2022/10/03 11:55:21;;;;;;;1.33;1.23;;;;;;;20.31;31.66;100134.22;4944042;29;20035;-92
2022/10/03 11:58:10;;;;;;;0.93;0.90;;;;;;;20.38;31.56;100134.81;4920230;29;20047;-92
2022/10/03 12:00:35;;;;;;;1.33;1.10;;;;;;;20.57;31.39;100131.72;4945291;29;20299;-93
2022/10/03 12:03:09;;;;;;;1.17;0.95;;;;;;;20.71;31.16;100116.63;4951585;28;20548;-92
2022/10/03 12:05:47;;;;;;;0.90;0.90;;;;;;;21.09;30.61;100128.25;4935485;29;20031;-92
2022/10/03 12:11:12;;;;;;;1.20;1.10;;;;;;;21.38;30.33;100119.69;4946603;29;20098;-91
2022/10/03 12:14:06;;;;;;;1.20;1.10;;;;;;;21.36;30.32;100117.25;4935508;29;20452;-91
2022/10/03 12:16:59;;;;;;;1.13;1.02;;;;;;;21.22;30.56;100109.88;4941859;29;20027;-92
2022/10/03 12:19:49;;;;;;;1.17;1.08;;;;;;;21.07;30.73;100111.41;4934007;28;20480;-92
2022/10/03 12:22:55;;;;;;;2.13;1.20;;;;;;;20.97;31.00;100108.63;4946593;29;20111;-91
2022/10/03 12:25:25;;;;;;;1.33;1.23;;;;;;;20.88;31.24;100110.22;4938053;29;20061;-92
2022/10/03 12:28:13;;;;;;;1.20;1.05;;;;;;;20.81;31.11;100105.81;4943040;29;20046;-92
2022/10/03 12:30:54;;;;;;;1.10;1.00;;;;;;;20.70;31.24;100106.88;4957268;28;20055;-92
2022/10/03 12:33:55;;;;;;;1.42;1.13;;;;;;;20.66;31.28;100103.03;4932240;29;20122;-91
2022/10/03 12:36:52;;;;;;;1.13;1.02;;;;;;;20.60;31.39;100104.06;4945350;29;20036;-92
2022/10/03 12:39:29;;;;;;;1.30;1.20;;;;;;;20.55;31.40;100098.59;4949461;28;20042;-92
2022/10/03 12:42:21;;;;;;;1.10;1.00;;;;;;;20.51;31.44;100100.19;4940883;29;20473;-91
2022/10/03 12:45:19;;;;;;;2.35;1.33;;;;;;;20.46;31.49;100087.41;4946021;29;20543;-92
2022/10/03 12:48:46;;;;;;;1.40;1.30;;;;;;;20.44;31.44;100095.00;4943279;29;20032;-92
2022/10/03 12:51:26;;;;;;;1.38;1.27;;;;;;;20.38;31.59;100080.53;4905618;29;20034;-92
2022/10/03 12:54:19;;;;;;;1.35;1.10;;;;;;;20.34;31.82;100086.75;4892544;29;20040;-91
2022/10/03 12:56:49;;;;;;;1.25;1.10;;;;;;;20.29;31.87;100075.88;4936796;29;20074;-92
2022/10/03 12:59:37;;;;;;;1.20;1.10;;;;;;;20.28;31.74;100080.47;4940731;29;20078;-91
2022/10/03 13:02:06;;;;;;;1.50;1.40;;;;;;;20.23;31.77;100072.28;4939429;28;20074;-92
2022/10/03 13:04:42;;;;;;;1.33;1.23;;;;;;;20.23;31.86;100067.69;4939729;28;20038;-92
2022/10/03 13:07:25;;;;;;;1.15;1.05;;;;;;;20.44;31.75;100063.22;4933538;29;20046;-92
2022/10/03 13:10:12;;;;;;;1.17;1.08;;;;;;;20.62;31.17;100039.47;4939576;29;20061;-92
2022/10/03 13:12:50;;;;;;;0.95;0.93;;;;;;;20.99;30.92;100052.16;4932642;29;20373;-92
2022/10/03 13:15:18;;;;;;;1.05;1.00;;;;;;;21.13;30.95;100057.94;4940680;29;20031;-92
2022/10/03 13:17:48;;;;;;;1.88;1.20;;;;;;;21.19;30.84;100046.78;4938437;28;20035;-92
2022/10/03 13:20:23;;;;;;;1.23;1.13;;;;;;;21.14;30.94;100044.03;4938259;29;20035;-92
2022/10/03 13:23:15;;;;;;;1.20;1.10;;;;;;;21.03;31.05;100049.72;4940100;29;20062;-91
2022/10/03 13:25:44;;;;;;;1.33;1.20;;;;;;;20.94;31.21;100039.38;4936726;29;20047;-92
2022/10/03 13:28:16;;;;;;;1.20;1.10;;;;;;;20.81;31.13;100023.53;4943748;29;20487;-92
2022/10/03 13:30:55;;;;;;;1.65;1.27;;;;;;;20.73;31.26;100024.88;4939477;29;20034;-92
2022/10/03 13:33:42;;;;;;;1.33;1.23;;;;;;;20.62;31.45;100032.13;4936592;29;20024;-92
2022/10/03 13:36:22;;;;;;;1.27;1.08;;;;;;;20.58;31.38;100024.78;4942726;28;20031;-92
2022/10/03 13:38:58;;;;;;;1.90;1.20;;;;;;;20.54;31.54;100029.06;4940503;29;20035;-92
2022/10/03 13:41:49;;;;;;;1.20;1.10;;;;;;;20.51;31.67;100024.19;4945615;29;20126;-92
2022/10/03 13:44:23;;;;;;;1.40;1.30;;;;;;;20.43;31.54;100029.00;4940294;29;20512;-92
2022/10/03 13:47:03;;;;;;;;;;;;;;;20.45;31.62;100020.59;4920316;29;20074;-92
2022/10/03 13:49:34;;;;;;;1.55;1.35;;;;;;;20.39;32.03;100027.91;4936375;28;20530;-92
2022/10/03 13:52:28;;;;;;;1.73;1.40;;;;;;;20.37;31.74;100027.34;4941310;29;20394;-92
2022/10/03 13:55:25;;;;;;;1.53;1.40;;;;;;;20.32;31.97;100021.91;4939459;29;20110;-93
2022/10/03 13:58:12;;;;;;;1.50;1.40;;;;;;;20.29;32.01;100027.84;4925703;29;20032;-92
2022/10/03 14:01:12;;;;;;;1.45;1.35;;;;;;;20.21;31.89;100015.59;4958271;28;20034;-92
2022/10/03 14:03:44;;;;;;;1.38;1.27;;;;;;;20.20;32.06;100011.22;4934046;29;20035;-93
2022/10/03 14:06:36;;;;;;;1.90;1.20;;;;;;;20.21;32.13;100004.75;4934331;29;20059;-92
2022/10/03 14:09:25;;;;;;;1.38;1.20;;;;;;;20.19;32.04;100008.78;4933967;29;20027;-92
2022/10/03 14:12:17;;;;;;;2.53;1.30;;;;;;;20.19;32.12;100006.06;4947392;29;20102;-92
2022/10/03 14:14:43;;;;;;;1.13;1.02;;;;;;;20.09;32.04;100006.78;4931919;29;20039;-93
2022/10/03 14:17:19;;;;;;;1.15;1.05;;;;;;;20.05;32.16;100011.91;4940501;29;20027;-93
2022/10/03 14:20:08;;;;;;;1.20;1.10;;;;;;;20.29;31.80;100008.03;4937126;29;20035;-92
2022/10/03 14:22:46;;;;;;;0.88;0.88;;;;;;;20.58;31.69;100013.91;4938153;29;20123;-92
2022/10/03 14:25:23;;;;;;;1.20;1.10;;;;;;;20.81;31.42;100008.06;4940835;28;20083;-92
2022/10/03 14:27:54;;;;;;;1.38;1.15;;;;;;;21.03;31.06;100020.66;4938232;29;20063;-90
2022/10/03 14:30:35;;;;;;;0.90;0.90;;;;;;;21.13;30.98;100015.25;4952789;28;20042;-91
2022/10/03 14:33:32;;;;;;;0.85;0.85;;;;;;;21.13;30.72;100009.81;4938417;29;20038;-91
2022/10/03 14:36:18;;;;;;;1.77;1.13;;;;;;;21.04;31.04;100011.44;4945853;29;20074;-92
2022/10/03 14:39:00;;;;;;;0.90;0.90;;;;;;;20.91;31.26;100003.78;4947552;28;20505;-92
2022/10/03 14:42:05;;;;;;;1.00;1.00;;;;;;;20.80;31.36;100003.72;4947800;29;20194;-92
2022/10/03 14:44:39;;;;;;;1.95;1.35;;;;;;;20.63;31.44;99993.06;4938825;29;20034;-92
2022/10/03 14:47:12;;;;;;;1.17;1.08;;;;;;;20.59;31.46;100000.06;4960818;28;20091;-89
2022/10/03 14:49:39;;;;;;;1.23;1.13;;;;;;;20.52;31.25;99993.22;4952577;29;20027;-91
2022/10/03 14:52:21;;;;;;;2.55;1.17;;;;;;;20.47;31.70;99991.28;4944552;29;20020;-91
2022/10/03 14:54:49;;;;;;;1.05;1.02;;;;;;;20.42;31.80;99996.69;4943188;29;21199;-92
2022/10/03 14:57:44;;;;;;;1.80;1.33;;;;;;;20.39;31.76;99989.91;4938508;29;20031;-92
2022/10/03 15:00:22;;;;;;;;;;;;;;;20.41;31.69;99987.75;4938987;28;20585;-90
2022/10/03 15:02:49;;;;;;;1.20;1.10;;;;;;;20.35;31.68;99988.81;4937767;29;19919;-92
2022/10/03 15:05:22;;;;;;;3.25;1.23;;;;;;;20.35;31.69;99983.38;4948847;28;20042;-92
2022/10/03 15:07:47;;;;;;;1.23;1.13;;;;;;;20.30;31.65;99979.81;4943349;29;20043;-92
2022/10/03 15:10:24;;;;;;;1.10;1.10;;;;;;;20.28;31.67;99982.78;4947925;28;20040;-91
2022/10/03 15:12:57;;;;;;;1.38;1.27;;;;;;;20.23;32.00;99978.16;4939124;29;20039;-92
2022/10/03 15:15:25;;;;;;;1.25;1.15;;;;;;;20.19;31.97;99962.66;4939144;29;20035;-92
2022/10/03 15:17:56;;;;;;;1.08;1.08;;;;;;;20.15;31.93;99965.06;4935058;29;20027;-91
2022/10/03 15:20:25;;;;;;;0.93;0.93;;;;;;;20.16;32.12;99968.59;4942402;29;20094;-92
2022/10/03 15:22:56;;;;;;;1.85;1.35;;;;;;;20.15;32.04;99959.66;4945514;29;20035;-91
2022/10/03 15:25:24;;;;;;;1.20;1.10;;;;;;;20.10;31.95;99964.22;4948510;28;20039;-92
2022/10/03 15:27:52;;;;;;;1.30;1.20;;;;;;;20.06;32.48;99963.94;4951028;28;20085;-91
2022/10/03 15:30:26;;;;;;;1.13;1.02;;;;;;;20.03;32.06;99950.88;4942336;28;20055;-93
2022/10/03 15:32:54;;;;;;;1.20;1.10;;;;;;;20.35;31.76;99945.38;4938232;28;20039;-91
2022/10/03 15:35:27;;;;;;;2.53;1.20;;;;;;;20.62;31.39;99955.31;4933461;29;20128;-92
2022/10/03 15:37:55;;;;;;;1.10;1.00;;;;;;;20.82;31.00;99949.97;4936121;29;20430;-92
2022/10/03 15:40:43;;;;;;;1.10;1.00;;;;;;;20.96;30.96;99944.03;4946918;29;20019;-92
2022/10/03 15:43:14;;;;;;;0.90;0.90;;;;;;;21.18;30.68;99963.66;4943880;29;20082;-91
2022/10/03 15:45:40;;;;;;;1.77;1.10;;;;;;;21.17;30.68;99953.84;4944762;29;20561;-91
2022/10/03 15:48:12;;;;;;;1.42;1.15;;;;;;;21.10;30.81;99961.44;4937421;29;20042;-92
2022/10/03 15:50:39;;;;;;;1.10;1.10;;;;;;;21.01;30.90;99954.91;4932754;29;20440;-92
2022/10/03 15:53:24;;;;;;;1.00;0.93;;;;;;;20.87;30.88;99949.16;4930205;29;20059;-91
2022/10/03 15:56:00;;;;;;;1.40;1.27;;;;;;;20.75;31.16;99954.81;4952934;28;20608;-92
2022/10/03 15:58:32;;;;;;;1.42;1.10;;;;;;;20.64;31.23;99939.56;4923308;29;20034;-92
2022/10/03 16:01:05;;;;;;;1.38;1.02;;;;;;;20.58;31.46;99946.84;4906498;29;20036;-92
2022/10/03 16:03:50;;;;;;;1.17;1.05;;;;;;;20.50;31.39;99946.53;4942138;29;20657;-92
2022/10/03 16:06:20;;;;;;;1.85;1.27;;;;;;;20.37;31.27;99921.50;4953162;28;20031;-93
2022/10/03 16:08:53;;;;;;;1.17;1.08;;;;;;;20.43;31.45;99936.72;4939141;29;20030;-92
2022/10/03 16:11:24;;;;;;;0.98;0.93;;;;;;;20.41;31.57;99938.91;4940391;29;20090;-93
2022/10/03 16:14:11;;;;;;;1.00;0.90;;;;;;;20.37;31.54;99936.97;4944917;29;20035;-92
2022/10/03 16:16:55;;;;;;;1.02;1.02;;;;;;;20.33;31.68;99930.44;4943805;29;20031;-92
2022/10/03 16:19:25;;;;;;;;;;;;;;;20.27;31.63;99935.03;4942908;28;20015;-90
2022/10/03 16:21:54;;;;;;;1.52;1.10;;;;;;;20.25;31.75;99927.16;4938391;29;20038;-92
2022/10/03 16:24:21;;;;;;;1.10;1.00;;;;;;;20.29;31.57;99926.63;4940338;29;20028;-91
2022/10/03 16:27:16;;;;;;;1.02;0.93;;;;;;;20.51;31.41;99921.03;4942530;29;20055;-91
2022/10/03 16:29:51;;;;;;;2.05;0.98;;;;;;;20.74;31.08;99925.22;4940800;29;20412;-92
2022/10/03 16:32:27;;;;;;;1.30;1.05;;;;;;;20.93;30.80;99920.13;4934330;29;20431;-90
2022/10/03 16:34:52;;;;;;;1.10;1.00;;;;;;;21.10;30.66;99923.41;4933720;29;20499;-91
2022/10/03 16:37:23;;;;;;;0.90;0.90;;;;;;;21.19;30.53;99916.34;4949643;28;20050;-91
2022/10/03 16:39:59;;;;;;;1.02;1.00;;;;;;;21.21;30.48;99913.38;4944052;29;20027;-91
2022/10/03 16:42:27;;;;;;;1.35;1.20;;;;;;;21.11;30.54;99907.91;4927793;29;20028;-92
2022/10/03 16:44:55;;;;;;;0.95;0.93;;;;;;;21.05;30.81;99900.84;4938421;29;20043;-92
2022/10/03 16:47:37;;;;;;;0.98;0.98;;;;;;;20.92;30.90;99908.44;4932500;28;20366;-91
2022/10/03 16:52:50;;;;;;;1.00;1.00;;;;;;;20.75;31.22;99899.72;4946350;28;20042;-91
2022/10/03 16:55:36;;;;;;;1.10;1.00;;;;;;;20.63;31.22;99899.94;4938859;29;20427;-91
2022/10/03 16:58:46;;;;;;;1.10;1.00;;;;;;;20.32;31.40;99863.69;4947567;28;20030;-92
2022/10/03 17:01:50;;;;;;;1.50;1.40;;;;;;;20.29;31.07;99865.03;4922803;29;20145;-92
2022/10/03 17:04:25;;;;;;;1.02;1.00;;;;;;;20.47;31.45;99888.16;4929917;29;20049;-91
2022/10/03 17:06:53;;;;;;;1.67;1.02;;;;;;;20.33;31.51;99887.81;4944317;29;20035;-91
2022/10/03 17:09:38;;;;;;;1.20;1.10;;;;;;;20.39;31.60;99875.94;4918737;29;20118;-90
2022/10/03 17:12:06;;;;;;;1.20;1.10;;;;;;;20.34;31.69;99877.81;4957544;28;20115;-93
2022/10/03 17:14:37;;;;;;;1.10;1.00;;;;;;;20.08;31.45;99855.97;4947140;28;20039;-92
2022/10/03 17:17:25;;;;;;;1.30;1.10;;;;;;;20.27;31.72;99872.63;4939040;28;20187;-92
2022/10/03 17:20:00;;;;;;;1.08;1.00;;;;;;;20.02;31.83;99849.72;4936290;29;20066;-91
2022/10/03 17:22:37;;;;;;;1.15;1.05;;;;;;;19.93;31.88;99843.16;4907248;29;20580;-92
2022/10/03 17:25:32;;;;;;;1.20;1.10;;;;;;;20.17;31.85;99873.38;4939297;29;20031;-92
2022/10/03 17:27:57;;;;;;;;;;;;;;;20.32;31.64;99863.69;4920145;29;20039;-90
2022/10/03 17:30:33;;;;;;;1.00;1.00;;;;;;;20.57;31.32;99866.47;4937064;28;19925;-92
2022/10/03 17:33:16;;;;;;;1.20;1.10;;;;;;;20.86;30.91;99867.97;4933908;29;20034;-91
2022/10/03 17:36:04;;;;;;;0.82;0.82;;;;;;;21.06;30.79;99868.00;4945921;28;20036;-92
2022/10/03 17:38:41;;;;;;;1.30;1.20;;;;;;;21.04;30.52;99848.44;4931902;29;20027;-93
2022/10/03 17:41:21;;;;;;;1.20;1.00;;;;;;;21.19;30.61;99842.19;4912333;28;20028;-90
2022/10/03 17:43:56;;;;;;;1.30;1.20;;;;;;;21.20;30.62;99851.97;4913632;29;20028;-91
2022/10/03 17:46:42;;;;;;;1.52;1.20;;;;;;;21.11;30.88;99856.28;4939750;29;20027;-91
2022/10/03 17:49:20;;;;;;;1.60;1.50;;;;;;;20.96;30.91;99847.06;4925512;29;20024;-91
2022/10/03 17:51:47;;;;;;;1.30;1.20;;;;;;;20.85;31.17;99850.03;4929909;29;20035;-88
2022/10/03 17:54:32;;;;;;;1.40;1.30;;;;;;;20.56;31.32;99821.44;4933023;29;20484;-90
2022/10/03 17:57:37;;;;;;;1.48;1.10;;;;;;;20.63;31.48;99848.34;4938621;29;20407;-91
2022/10/03 18:00:14;;;;;;;1.35;1.25;;;;;;;20.38;31.21;99832.75;4939197;29;20390;-91
2022/10/03 18:03:02;;;;;;;1.30;1.20;;;;;;;20.52;31.41;99849.38;4919461;29;20171;-91
2022/10/03 18:05:42;;;;;;;1.17;1.08;;;;;;;20.32;31.43;99823.00;4946451;29;20392;-89
2022/10/03 18:08:33;;;;;;;1.05;0.93;;;;;;;20.43;31.46;99838.22;4938666;29;20110;-90
2022/10/03 18:11:01;;;;;;;1.10;1.00;;;;;;;20.15;31.35;99787.94;4917701;29;20044;-90
2022/10/03 18:13:34;;;;;;;1.45;1.05;;;;;;;20.37;31.60;99834.69;4936051;29;20039;-89
2022/10/03 18:16:02;;;;;;;1.77;1.40;;;;;;;20.34;31.51;99823.53;4949427;29;20033;-90
2022/10/03 18:19:20;;;;;;;1.08;0.98;;;;;;;20.13;31.64;99798.22;4945558;28;20035;-90
2022/10/03 18:22:01;;;;;;;1.23;1.13;;;;;;;20.26;31.61;99811.28;4935630;29;20050;-88
2022/10/03 18:24:51;;;;;;;1.48;1.15;;;;;;;20.23;31.76;99817.25;4946030;29;20572;-90
2022/10/03 18:27:36;;;;;;;0.98;0.98;;;;;;;20.19;31.67;99808.81;4944041;29;20373;-90
2022/10/03 18:30:18;;;;;;;1.00;1.00;;;;;;;20.14;31.91;99805.28;4944584;29;20034;-89
2022/10/03 18:32:44;;;;;;;1.08;0.98;;;;;;;20.03;31.90;99786.25;4946860;29;20653;-91
2022/10/03 18:35:22;;;;;;;2.17;1.10;;;;;;;20.26;31.76;99795.00;4946550;29;20031;-88
2022/10/03 18:37:52;;;;;;;0.90;0.90;;;;;;;20.35;31.41;99779.84;4941751;28;20063;-91
2022/10/03 18:40:48;;;;;;;1.17;1.08;;;;;;;20.68;31.05;99772.34;4942605;29;20098;-90
2022/10/03 18:43:49;;;;;;;1.20;1.08;;;;;;;21.10;30.82;99792.19;4944833;29;20046;-90
2022/10/03 18:46:17;;;;;;;1.00;0.90;;;;;;;21.29;30.59;99797.88;4946888;29;20028;-90
2022/10/03 18:49:11;;;;;;;1.10;1.00;;;;;;;21.08;30.59;99759.88;4933399;29;20034;-90
2022/10/03 18:51:43;;;;;;;1.67;1.13;;;;;;;21.20;30.51;99793.00;4946603;29;20027;-91
2022/10/03 18:54:46;;;;;;;1.13;1.02;;;;;;;21.01;30.75;99783.78;4926685;29;20086;-90
2022/10/03 18:57:30;;;;;;;1.25;1.10;;;;;;;20.91;30.95;99790.00;4910801;29;20480;-91
2022/10/03 19:00:00;;;;;;;;;;;;;;;20.87;30.95;99777.22;4946494;29;20200;-88
2022/10/03 19:02:29;;;;;;;1.90;1.00;;;;;;;20.75;31.18;99774.81;4920591;29;19919;-91
2022/10/03 19:05:18;;;;;;;1.10;1.08;;;;;;;20.66;31.22;99776.41;4944141;29;20499;-91
2022/10/03 19:07:54;;;;;;;0.82;0.82;;;;;;;20.56;31.05;99775.28;4948276;28;20147;-90
2022/10/03 19:10:58;;;;;;;1.95;1.45;;;;;;;20.51;31.06;99775.28;4946211;28;20530;-91
2022/10/03 19:13:35;;;;;;;1.10;1.00;;;;;;;20.49;31.21;99771.19;4933674;28;20054;-91
2022/10/03 19:16:08;;;;;;;1.30;1.20;;;;;;;20.18;31.43;99742.09;4934697;29;20496;-91
2022/10/03 19:18:51;;;;;;;1.20;1.10;;;;;;;20.31;31.43;99753.50;4938856;28;20610;-91
2022/10/03 19:21:32;;;;;;;0.90;0.90;;;;;;;20.13;31.57;99736.66;4936021;29;20062;-91
2022/10/03 19:24:04;;;;;;;2.40;1.33;;;;;;;20.10;31.50;99729.03;4935172;29;20023;-91
2022/10/03 19:26:33;;;;;;;1.48;1.20;;;;;;;20.04;31.45;99725.50;4920229;29;20035;-91
2022/10/03 19:29:07;;;;;;;2.53;1.42;;;;;;;19.96;31.64;99727.91;4942758;29;20093;-91
2022/10/03 19:31:40;;;;;;;1.30;0.90;;;;;;;20.21;31.69;99759.72;4918512;29;20090;-91
2022/10/03 19:34:25;;;;;;;1.52;1.20;;;;;;;20.26;31.76;99757.03;4933218;29;20051;-91
2022/10/03 19:36:51;;;;;;;1.88;1.10;;;;;;;20.24;31.27;99718.50;4920922;29;20123;-90
2022/10/03 19:39:17;;;;;;;0.85;0.85;;;;;;;20.48;31.13;99709.84;4918618;29;20050;-91
2022/10/03 19:41:51;;;;;;;0.90;0.90;;;;;;;20.96;30.70;99737.59;4913927;29;20075;-91
2022/10/03 19:44:26;;;;;;;0.95;0.93;;;;;;;21.04;30.43;99723.47;4939070;29;20031;-90
2022/10/03 19:46:57;;;;;;;0.93;0.90;;;;;;;21.14;30.43;99734.31;4919200;28;20465;-90
2022/10/03 19:49:27;;;;;;;0.85;0.85;;;;;;;21.09;30.47;99709.84;4936368;29;20346;-91
2022/10/03 19:52:10;;;;;;;1.30;1.20;;;;;;;21.20;30.36;99733.22;4934187;29;20102;-90
2022/10/03 19:55:03;;;;;;;1.20;1.10;;;;;;;21.07;30.63;99728.34;4946025;29;20031;-90
2022/10/03 19:57:32;;;;;;;1.05;0.95;;;;;;;20.97;30.77;99726.47;4947165;29;20474;-91
2022/10/03 20:00:06;;;;;;;2.15;1.20;;;;;;;20.74;30.95;99722.38;4931908;29;20299;-90
2022/10/03 20:02:32;;;;;;;;;;;;;;;20.79;30.96;99716.94;4952205;28;20388;-89
2022/10/03 20:04:58;;;;;;;0.93;0.77;;;;;;;20.65;31.07;99718.59;4947485;28;19926;-87
2022/10/03 20:07:42;;;;;;;1.27;1.17;;;;;;;20.63;30.98;99715.34;4948126;29;20481;-90
2022/10/03 20:10:15;;;;;;;;;;;;;;;20.60;30.96;99719.34;4940848;29;20536;-89
2022/10/03 20:12:40;;;;;;;2.05;1.20;;;;;;;20.48;31.22;99707.94;4939385;29;19923;-90
2022/10/03 20:15:20;;;;;;;1.40;1.30;;;;;;;20.49;31.25;99716.91;4937195;29;20062;-90
2022/10/03 20:17:46;;;;;;;1.75;1.65;;;;;;;20.39;31.15;99710.38;4943743;28;20026;-92
2022/10/03 20:20:17;;;;;;;1.20;1.10;;;;;;;20.40;31.46;99714.75;4929490;29;20541;-90
2022/10/03 20:22:43;;;;;;;2.47;1.20;;;;;;;20.36;31.43;99701.97;4928586;29;20024;-94
2022/10/03 20:25:22;;;;;;;1.50;1.38;;;;;;;20.32;31.23;99701.69;4939661;29;20499;-91
2022/10/03 20:27:50;;;;;;;1.10;1.00;;;;;;;20.25;31.37;99691.09;4944429;29;20039;-92
2022/10/03 20:30:26;;;;;;;1.08;1.02;;;;;;;20.27;31.40;99696.25;4940832;28;20023;-93
2022/10/03 20:32:52;;;;;;;1.25;1.15;;;;;;;20.48;31.23;99696.28;4938926;28;20043;-93
2022/10/03 20:35:53;;;;;;;2.03;1.00;;;;;;;20.76;30.88;99673.22;4942440;29;20020;-92
2022/10/03 20:38:37;;;;;;;1.05;0.93;;;;;;;21.07;30.62;99684.06;4955753;28;20090;-93
2022/10/03 20:41:14;;;;;;;1.42;1.33;;;;;;;21.24;30.49;99681.03;4943415;29;20081;-92
2022/10/03 20:43:55;;;;;;;1.30;1.00;;;;;;;21.33;30.21;99682.09;4947899;29;20036;-93
2022/10/03 20:46:22;;;;;;;1.20;1.10;;;;;;;21.30;30.21;99677.22;4949220;28;20115;-93
2022/10/03 20:49:10;;;;;;;2.90;1.23;;;;;;;21.23;30.31;99663.94;4941480;29;20032;-92
2022/10/03 20:52:05;;;;;;;1.38;1.10;;;;;;;21.11;30.54;99669.66;4941266;29;20023;-91
2022/10/03 20:54:51;;;;;;;1.20;1.00;;;;;;;20.95;30.75;99662.63;4955945;28;20131;-92
2022/10/03 20:57:22;;;;;;;1.45;1.20;;;;;;;20.81;30.81;99649.59;4946133;29;20038;-92
2022/10/03 20:59:59;;;;;;;1.30;1.20;;;;;;;20.70;30.79;99647.19;4930682;29;20032;-91
2022/10/03 21:02:39;;;;;;;2.28;1.20;;;;;;;20.66;30.98;99646.91;4932578;28;20067;-91
2022/10/03 21:05:08;;;;;;;1.40;1.23;;;;;;;20.53;31.14;99642.00;4938922;29;20144;-92
2022/10/03 21:07:35;;;;;;;1.10;1.00;;;;;;;20.56;31.02;99641.47;4945570;29;20260;-91
2022/10/03 21:10:08;;;;;;;2.05;1.30;;;;;;;20.49;30.98;99640.91;4938649;28;20082;-89
2022/10/03 21:12:49;;;;;;;1.20;1.10;;;;;;;20.40;31.26;99629.78;4939073;28;20532;-91
2022/10/03 21:15:20;;;;;;;1.40;1.10;;;;;;;20.37;31.07;99622.16;4940661;29;20040;-92
2022/10/03 21:17:46;;;;;;;1.70;1.60;;;;;;;20.33;31.13;99632.75;4928500;29;20032;-90
2022/10/03 21:20:17;;;;;;;2.15;1.77;;;;;;;20.35;31.18;99630.63;4935165;29;20201;-93
2022/10/03 21:22:43;;;;;;;2.55;2.08;;;;;;;20.50;30.91;99620.84;4944101;29;20028;-92
2022/10/03 21:25:29;;;;;;;2.97;2.38;;;;;;;20.78;30.66;99617.59;4933458;29;20113;-91
2022/10/03 21:28:01;;;;;;;3.08;2.35;;;;;;;21.06;30.45;99612.63;4939729;29;20031;-91
2022/10/03 21:31:08;;;;;;;3.45;2.60;;;;;;;21.28;30.04;99611.47;4944087;29;20030;-91
2022/10/03 21:34:26;;;;;;;2.70;2.20;;;;;;;21.48;29.88;99614.13;4939469;28;20039;-92
2022/10/03 21:37:04;;;;;;;3.50;2.22;;;;;;;21.43;29.88;99611.41;4937452;29;20039;-92
2022/10/03 21:39:48;;;;;;;4.10;2.05;;;;;;;21.34;30.02;99605.72;4935204;29;20118;-90
2022/10/03 21:42:21;;;;;;;3.05;1.98;;;;;;;21.22;30.04;99599.00;4948725;28;20039;-91
2022/10/03 21:44:58;;;;;;;2.38;2.15;;;;;;;21.08;30.52;99605.00;4947398;29;20095;-91
2022/10/03 21:47:32;;;;;;;2.35;2.05;;;;;;;20.95;30.53;99600.97;4946138;28;20034;-92
2022/10/03 21:50:04;;;;;;;2.40;2.03;;;;;;;20.76;30.52;99598.00;4951251;28;20121;-90
2022/10/03 21:53:07;;;;;;;2.17;1.80;;;;;;;20.74;30.79;99600.19;4930635;29;20038;-92
2022/10/03 21:56:01;;;;;;;2.72;1.85;;;;;;;20.67;30.72;99594.25;4944615;29;20032;-91
2022/10/03 21:58:35;;;;;;;2.70;1.83;;;;;;;20.62;30.63;99586.91;4937199;29;20043;-92
2022/10/03 22:01:20;;;;;;;1.50;1.40;;;;;;;20.56;30.82;99593.41;4946947;29;20634;-92